Time;durP1;ratioP1;P1;durP2;ratioP2;P2;SDS_P1;SDS_P2;PMS_P1;PMS_P2;Temp;Humidity;BMP_temperature;BMP_pressure;BME280_temperature;BME280_humidity;BME280_pressure;Samples;Min_cycle;Max_cycle;Signal;HPM_P1;HPM_P2
2023/10/01 00:00:43;;;;;;;9.75;3.40;;;;;;;;;;5034752;28;20053;-79
2023/10/01 00:03:10;;;;;;;11.63;3.30;;;;;;;;;;5035330;28;20044;-80
2023/10/01 00:05:40;;;;;;;9.25;3.30;;;;;;;;;;5022882;28;20495;-80
2023/10/01 00:08:08;;;;;;;8.13;3.20;;;;;;;;;;5049627;28;20053;-78
2023/10/01 00:10:35;;;;;;;6.90;2.95;;;;;;;;;;5046551;28;20478;-80
2023/10/01 00:13:02;;;;;;;7.93;3.17;;;;;;;;;;5042456;28;20076;-81
2023/10/01 00:15:30;;;;;;;7.97;3.22;;;;;;;;;;5022508;28;20120;-80
2023/10/01 00:17:57;;;;;;;7.50;2.70;;;;;;;;;;5015442;28;20092;-81
2023/10/01 00:20:25;;;;;;;9.98;3.22;;;;;;;;;;5031330;28;20038;-79
2023/10/01 00:22:57;;;;;;;6.82;3.10;;;;;;;;;;5036379;28;20556;-79
2023/10/01 00:25:24;;;;;;;5.97;2.30;;;;;;;;;;5005295;28;20419;-81
2023/10/01 00:27:51;;;;;;;5.05;2.55;;;;;;;;;;5023312;28;20045;-82
2023/10/01 00:30:18;;;;;;;5.78;2.53;;;;;;;;;;5026360;28;20042;-81
2023/10/01 00:32:45;;;;;;;10.68;2.67;;;;;;;;;;5020489;28;20100;-80
2023/10/01 00:35:12;;;;;;;9.10;2.95;;;;;;;;;;5018895;28;20572;-82
2023/10/01 00:37:39;;;;;;;7.78;2.83;;;;;;;;;;5010385;28;20042;-80
2023/10/01 00:40:08;;;;;;;5.60;2.58;;;;;;;;;;5018131;28;20038;-81
2023/10/01 00:42:35;;;;;;;8.23;2.72;;;;;;;;;;5039726;28;20037;-80
2023/10/01 00:45:02;;;;;;;5.75;2.60;;;;;;;;;;5045127;28;20073;-81
2023/10/01 00:47:30;;;;;;;5.15;2.67;;;;;;;;;;5038055;28;20057;-82
2023/10/01 00:49:58;;;;;;;8.60;3.00;;;;;;;;;;5042274;28;20045;-81
2023/10/01 00:52:25;;;;;;;6.88;2.33;;;;;;;;;;5051118;28;20107;-81
2023/10/01 00:54:54;;;;;;;6.38;2.42;;;;;;;;;;5025854;28;20107;-81
2023/10/01 00:57:21;;;;;;;9.52;2.80;;;;;;;;;;5029333;28;20095;-80
2023/10/01 00:59:48;;;;;;;6.78;2.70;;;;;;;;;;5040139;28;20037;-78
2023/10/01 01:02:18;;;;;;;5.95;2.55;;;;;;;;;;5032153;28;20099;-83
2023/10/01 01:05:05;;;;;;;6.70;2.40;;;;;;;;;;5037655;28;20071;-83
2023/10/01 01:07:40;;;;;;;7.45;2.75;;;;;;;;;;5040794;28;20060;-82
2023/10/01 01:10:07;;;;;;;7.70;2.20;;;;;;;;;;5040803;28;20045;-81
2023/10/01 01:12:35;;;;;;;7.00;2.75;;;;;;;;;;5039203;28;20123;-81
2023/10/01 01:15:01;;;;;;;6.75;2.50;;;;;;;;;;5031218;28;20045;-82
2023/10/01 01:17:28;;;;;;;9.40;2.80;;;;;;;;;;5029662;28;20512;-80
2023/10/01 01:19:55;;;;;;;6.05;2.78;;;;;;;;;;5026781;28;20060;-79
2023/10/01 01:22:28;;;;;;;5.53;2.95;;;;;;;;;;5020954;28;20101;-82
2023/10/01 01:24:57;;;;;;;5.80;2.28;;;;;;;;;;5029094;28;20045;-81
2023/10/01 01:27:24;;;;;;;7.45;3.05;;;;;;;;;;5012729;28;20165;-81
2023/10/01 01:29:50;;;;;;;8.57;2.80;;;;;;;;;;5016117;28;20042;-81
2023/10/01 01:32:17;;;;;;;7.07;2.50;;;;;;;;;;5018355;28;20054;-81
2023/10/01 01:34:44;;;;;;;5.95;2.80;;;;;;;;;;5019386;28;20072;-80
2023/10/01 01:37:19;;;;;;;7.22;2.83;;;;;;;;;;5018050;28;20053;-83
2023/10/01 01:39:48;;;;;;;;;;;;;;;;;;4998126;28;20127;-82
2023/10/01 01:42:21;;;;;;;9.45;2.78;;;;;;;;;;5012865;28;19952;-81
2023/10/01 01:44:48;;;;;;;6.85;2.60;;;;;;;;;;5009613;28;20046;-80
2023/10/01 01:47:15;;;;;;;7.22;2.67;;;;;;;;;;5042448;28;20121;-80
2023/10/01 01:49:43;;;;;;;8.52;2.60;;;;;;;;;;4996167;28;20044;-81
2023/10/01 01:52:10;;;;;;;6.32;2.70;;;;;;;;;;5040497;28;20060;-82
2023/10/01 01:54:40;;;;;;;6.38;2.40;;;;;;;;;;5032580;28;20086;-80
2023/10/01 01:57:14;;;;;;;6.50;2.40;;;;;;;;;;5043903;28;20119;-82
2023/10/01 01:59:41;;;;;;;4.05;2.35;;;;;;;;;;5034963;28;20045;-82
2023/10/01 02:02:11;;;;;;;6.50;2.80;;;;;;;;;;5018194;28;20143;-82
2023/10/01 02:04:58;;;;;;;6.13;2.80;;;;;;;;;;5047696;28;20025;-81
2023/10/01 02:07:33;;;;;;;12.07;3.20;;;;;;;;;;5042942;28;20373;-82
2023/10/01 02:10:00;;;;;;;7.53;2.58;;;;;;;;;;5034360;28;20041;-80
2023/10/01 02:12:30;;;;;;;6.93;2.95;;;;;;;;;;5051022;28;20046;-82
2023/10/01 02:14:56;;;;;;;8.70;2.80;;;;;;;;;;5032748;28;20049;-82
2023/10/01 02:17:25;;;;;;;6.68;2.70;;;;;;;;;;5039377;28;20049;-82
2023/10/01 02:19:55;;;;;;;4.50;2.70;;;;;;;;;;5031764;28;20057;-82
2023/10/01 02:22:24;;;;;;;6.15;2.50;;;;;;;;;;5031179;28;20072;-81
2023/10/01 02:25:00;;;;;;;5.78;2.47;;;;;;;;;;5004288;28;20042;-82
2023/10/01 02:27:28;;;;;;;6.22;2.33;;;;;;;;;;5012451;28;20264;-82
2023/10/01 02:32:49;;;;;;;8.85;2.50;;;;;;;;;;5011510;28;20052;-82
2023/10/01 02:35:35;;;;;;;6.53;2.83;;;;;;;;;;5010197;28;20443;-81
2023/10/01 02:38:03;;;;;;;5.55;2.50;;;;;;;;;;5028354;28;20053;-79
2023/10/01 02:40:36;;;;;;;11.15;2.90;;;;;;;;;;5032594;28;20050;-79
2023/10/01 02:43:07;;;;;;;5.22;2.20;;;;;;;;;;5051951;28;20060;-79
2023/10/01 02:45:35;;;;;;;4.90;2.38;;;;;;;;;;5039508;28;20324;-79
2023/10/01 02:48:16;;;;;;;6.85;3.17;;;;;;;;;;5035532;28;20057;-79
2023/10/01 02:50:52;;;;;;;5.25;2.65;;;;;;;;;;5033254;28;20373;-78
2023/10/01 02:53:20;;;;;;;6.32;2.85;;;;;;;;;;5048949;28;20038;-80
2023/10/01 02:55:47;;;;;;;9.98;2.60;;;;;;;;;;5037127;28;20096;-79
2023/10/01 02:58:18;;;;;;;6.95;2.78;;;;;;;;;;5030090;28;20496;-82
2023/10/01 03:00:53;;;;;;;5.40;2.38;;;;;;;;;;5054324;28;20049;-80
2023/10/01 03:03:31;;;;;;;6.03;2.50;;;;;;;;;;5038603;28;20120;-82
2023/10/01 03:05:58;;;;;;;7.43;2.60;;;;;;;;;;5037089;28;20132;-81
2023/10/01 03:11:18;;;;;;;6.55;2.63;;;;;;;;;;5031015;28;20843;-82
2023/10/01 03:13:48;;;;;;;6.45;2.88;;;;;;;;;;5031933;28;20041;-80
2023/10/01 03:19:13;;;;;;;8.50;2.63;;;;;;;;;;5010232;28;21375;-82
2023/10/01 03:24:25;;;;;;;8.27;2.80;;;;;;;;;;5028435;28;20061;-81
2023/10/01 03:26:57;;;;;;;6.32;2.60;;;;;;;;;;5017216;28;20496;-82
2023/10/01 03:29:48;;;;;;;4.93;2.33;;;;;;;;;;4994671;28;20065;-83
2023/10/01 03:32:28;;;;;;;6.25;2.90;;;;;;;;;;5026705;28;20120;-81
2023/10/01 03:34:56;;;;;;;7.05;2.40;;;;;;;;;;5015153;28;20161;-80
2023/10/01 03:37:27;;;;;;;4.95;2.33;;;;;;;;;;5009806;28;20263;-82
2023/10/01 03:40:05;;;;;;;6.43;2.47;;;;;;;;;;5014180;28;20088;-82
2023/10/01 03:42:37;;;;;;;9.07;2.30;;;;;;;;;;5019481;28;21463;-80
2023/10/01 03:45:38;;;;;;;5.43;2.55;;;;;;;;;;5009358;28;20062;-82
2023/10/01 03:47:57;;;;;;;6.82;2.35;;;;;;;;;;5030426;28;20049;-79
2023/10/01 03:50:25;;;;;;;6.57;2.33;;;;;;;;;;5022827;28;20092;-82
2023/10/01 03:52:54;;;;;;;7.15;2.40;;;;;;;;;;5009246;28;20045;-81
2023/10/01 03:55:31;;;;;;;7.05;2.17;;;;;;;;;;5007959;28;20042;-82
2023/10/01 04:00:40;;;;;;;6.55;2.67;;;;;;;;;;5009337;28;20081;-78
2023/10/01 04:03:08;;;;;;;5.40;2.20;;;;;;;;;;5000529;28;20189;-82
2023/10/01 04:05:37;;;;;;;7.97;2.47;;;;;;;;;;5009958;28;20436;-80
2023/10/01 04:08:09;;;;;;;6.55;2.40;;;;;;;;;;5011111;28;21227;-79
2023/10/01 04:10:38;;;;;;;5.15;2.45;;;;;;;;;;5009635;28;20050;-82
2023/10/01 04:15:48;;;;;;;5.20;2.17;;;;;;;;;;5002836;28;20149;-79
2023/10/01 04:23:30;;;;;;;6.63;2.30;;;;;;;;;;5011843;28;20096;-81
2023/10/01 04:26:00;;;;;;;4.00;1.60;;;;;;;;;;5017051;28;20057;-80
2023/10/01 04:28:27;;;;;;;5.03;1.95;;;;;;;;;;5011161;28;20060;-80
2023/10/01 04:30:56;;;;;;;3.85;1.67;;;;;;;;;;5008713;28;20052;-82
2023/10/01 04:33:23;;;;;;;3.85;1.83;;;;;;;;;;5025900;28;20141;-82
2023/10/01 04:35:58;;;;;;;4.43;1.75;;;;;;;;;;5026726;28;20046;-82
2023/10/01 04:38:32;;;;;;;5.53;2.00;;;;;;;;;;5040546;28;20112;-81
2023/10/01 04:40:59;;;;;;;5.05;1.85;;;;;;;;;;5014932;28;20643;-82
2023/10/01 04:43:34;;;;;;;6.10;2.00;;;;;;;;;;4987920;28;20526;-83
2023/10/01 04:46:04;;;;;;;5.55;1.90;;;;;;;;;;5008734;28;20112;-83
2023/10/01 04:48:33;;;;;;;4.65;1.67;;;;;;;;;;5016719;28;20050;-81
2023/10/01 04:51:02;;;;;;;3.25;1.75;;;;;;;;;;5014669;28;20069;-81
2023/10/01 04:53:30;;;;;;;8.57;1.90;;;;;;;;;;5011365;28;20099;-82
2023/10/01 04:56:00;;;;;;;4.07;1.60;;;;;;;;;;5011992;28;20041;-79
2023/10/01 04:58:29;;;;;;;6.68;2.10;;;;;;;;;;5014653;28;20520;-80
2023/10/01 05:00:56;;;;;;;8.13;2.17;;;;;;;;;;5018464;28;20325;-82
2023/10/01 05:03:38;;;;;;;6.38;2.45;;;;;;;;;;5022217;28;20053;-81
2023/10/01 05:06:09;;;;;;;7.88;2.33;;;;;;;;;;5028046;28;20391;-82
2023/10/01 05:08:38;;;;;;;7.70;2.58;;;;;;;;;;5020679;28;20049;-82
2023/10/01 05:11:10;;;;;;;10.20;2.92;;;;;;;;;;5028206;28;20086;-83
2023/10/01 05:13:41;;;;;;;4.47;2.13;;;;;;;;;;5014277;28;20086;-81
2023/10/01 05:16:14;;;;;;;8.70;2.03;;;;;;;;;;5014103;28;20045;-82
2023/10/01 05:18:43;;;;;;;8.98;2.00;;;;;;;;;;5020145;28;20920;-82
2023/10/01 05:21:12;;;;;;;9.40;2.58;;;;;;;;;;4995678;28;20056;-80
2023/10/01 05:23:41;;;;;;;6.45;2.10;;;;;;;;;;5014127;28;20049;-82
2023/10/01 05:26:08;;;;;;;6.35;2.30;;;;;;;;;;5016385;28;20054;-82
2023/10/01 05:28:41;;;;;;;10.02;2.20;;;;;;;;;;5016487;28;20060;-81
2023/10/01 05:31:09;;;;;;;4.20;1.70;;;;;;;;;;5031159;28;20123;-81
2023/10/01 05:33:36;;;;;;;8.35;1.90;;;;;;;;;;5023473;28;20038;-82
2023/10/01 05:36:06;;;;;;;9.07;2.00;;;;;;;;;;5011698;28;20046;-81
2023/10/01 05:38:36;;;;;;;6.55;1.92;;;;;;;;;;5017789;28;20204;-81
2023/10/01 05:41:03;;;;;;;3.58;1.73;;;;;;;;;;5018185;28;20099;-81
2023/10/01 05:43:35;;;;;;;8.05;2.17;;;;;;;;;;5015619;28;20484;-80
2023/10/01 05:46:02;;;;;;;7.60;2.30;;;;;;;;;;5038394;28;20057;-81
2023/10/01 05:48:29;;;;;;;9.15;2.17;;;;;;;;;;5029988;28;20050;-80
2023/10/01 05:50:58;;;;;;;8.43;2.13;;;;;;;;;;5012641;28;20494;-83
2023/10/01 05:53:25;;;;;;;8.05;2.13;;;;;;;;;;5013573;28;20100;-82
2023/10/01 05:55:52;;;;;;;5.28;2.10;;;;;;;;;;5028454;28;20137;-82
2023/10/01 05:58:19;;;;;;;6.45;2.10;;;;;;;;;;5026383;28;20456;-83
2023/10/01 06:00:56;;;;;;;4.97;1.63;;;;;;;;;;5053368;28;20569;-83
2023/10/01 06:03:25;;;;;;;8.50;2.47;;;;;;;;;;5020728;28;20049;-82
2023/10/01 06:05:58;;;;;;;6.70;2.10;;;;;;;;;;5035712;28;20535;-80
2023/10/01 06:08:25;;;;;;;7.65;2.08;;;;;;;;;;5037813;28;20100;-82
2023/10/01 06:11:05;;;;;;;4.85;1.80;;;;;;;;;;5033742;28;20048;-81
2023/10/01 06:13:35;;;;;;;8.95;1.63;;;;;;;;;;5035960;28;20054;-81
2023/10/01 06:16:11;;;;;;;5.38;1.70;;;;;;;;;;5035891;28;20523;-80
2023/10/01 06:18:41;;;;;;;7.40;2.05;;;;;;;;;;5027632;28;20038;-81
2023/10/01 06:21:11;;;;;;;5.25;1.90;;;;;;;;;;5042542;28;20168;-80
2023/10/01 06:23:49;;;;;;;4.75;1.75;;;;;;;;;;5043148;28;20484;-82
2023/10/01 06:26:16;;;;;;;5.85;2.00;;;;;;;;;;5038673;28;20057;-80
2023/10/01 06:28:43;;;;;;;8.50;2.78;;;;;;;;;;5018795;28;20049;-80
2023/10/01 06:31:10;;;;;;;6.72;2.28;;;;;;;;;;5013365;28;20049;-81
2023/10/01 06:33:38;;;;;;;5.53;2.03;;;;;;;;;;5016906;28;20050;-82
2023/10/01 06:36:19;;;;;;;6.70;1.88;;;;;;;;;;5018313;28;20049;-81
2023/10/01 06:38:47;;;;;;;6.35;2.15;;;;;;;;;;5008986;28;20064;-82
2023/10/01 06:41:16;;;;;;;4.15;1.73;;;;;;;;;;5016364;28;20064;-82
2023/10/01 06:43:49;;;;;;;9.55;1.92;;;;;;;;;;5020550;28;20136;-82
2023/10/01 06:46:22;;;;;;;5.68;2.17;;;;;;;;;;5012271;28;20042;-81
2023/10/01 06:48:52;;;;;;;4.90;1.63;;;;;;;;;;5008396;28;20157;-82
2023/10/01 06:51:21;;;;;;;7.68;1.90;;;;;;;;;;5014916;28;20042;-79
2023/10/01 06:53:48;;;;;;;4.22;1.60;;;;;;;;;;5021603;28;20050;-79
2023/10/01 06:56:17;;;;;;;5.47;1.90;;;;;;;;;;5014927;28;20042;-79
2023/10/01 06:59:13;;;;;;;5.72;2.03;;;;;;;;;;5009364;28;20065;-79
2023/10/01 07:01:56;;;;;;;4.25;1.80;;;;;;;;;;5016435;28;20459;-79
2023/10/01 07:04:23;;;;;;;6.78;1.73;;;;;;;;;;5018192;28;20057;-83
2023/10/01 07:06:50;;;;;;;7.53;2.00;;;;;;;;;;5006724;28;20072;-81
2023/10/01 07:09:34;;;;;;;5.00;1.67;;;;;;;;;;5018403;28;20064;-83
2023/10/01 07:12:02;;;;;;;5.28;1.92;;;;;;;;;;5026478;28;20571;-82
2023/10/01 07:14:43;;;;;;;6.97;1.90;;;;;;;;;;5030880;28;20041;-82
2023/10/01 07:17:18;;;;;;;10.95;2.30;;;;;;;;;;5039178;28;20120;-82
2023/10/01 07:19:47;;;;;;;5.75;1.95;;;;;;;;;;5033863;28;20045;-83
2023/10/01 07:22:24;;;;;;;3.25;1.63;;;;;;;;;;5039380;28;20060;-79
2023/10/01 07:24:51;;;;;;;2.85;1.55;;;;;;;;;;5030761;28;20332;-83
2023/10/01 07:27:18;;;;;;;4.68;1.90;;;;;;;;;;5044067;28;20084;-80
2023/10/01 07:29:44;;;;;;;3.08;1.42;;;;;;;;;;5042562;28;20053;-81
2023/10/01 07:32:12;;;;;;;4.63;1.55;;;;;;;;;;5040396;28;20109;-79
2023/10/01 07:34:39;;;;;;;5.18;1.77;;;;;;;;;;5034920;28;20045;-79
2023/10/01 07:37:07;;;;;;;6.72;1.65;;;;;;;;;;5046519;28;20052;-79
2023/10/01 07:39:34;;;;;;;7.55;2.03;;;;;;;;;;5064512;28;20040;-79
2023/10/01 07:42:04;;;;;;;6.45;1.60;;;;;;;;;;5041886;28;20038;-80
2023/10/01 07:44:32;;;;;;;4.60;1.83;;;;;;;;;;5041340;28;20057;-82
2023/10/01 07:47:00;;;;;;;5.68;1.88;;;;;;;;;;5037948;28;20106;-81
2023/10/01 07:49:41;;;;;;;7.75;2.08;;;;;;;;;;5013137;28;20973;-81
2023/10/01 07:52:10;;;;;;;4.53;1.70;;;;;;;;;;5021661;28;20033;-79
2023/10/01 07:54:37;;;;;;;5.88;2.05;;;;;;;;;;5021150;28;20084;-80
2023/10/01 07:57:08;;;;;;;6.30;1.63;;;;;;;;;;5016045;28;20189;-80
2023/10/01 07:59:34;;;;;;;5.43;1.80;;;;;;;;;;5025176;28;20137;-81
2023/10/01 08:02:19;;;;;;;5.72;2.08;;;;;;;;;;5026468;28;20069;-83
2023/10/01 08:07:30;;;;;;;6.20;1.83;;;;;;;;;;5018610;28;20119;-81
2023/10/01 08:09:59;;;;;;;5.75;1.80;;;;;;;;;;5026778;28;20026;-78
2023/10/01 08:12:46;;;;;;;8.70;2.08;;;;;;;;;;5032404;28;20049;-80
2023/10/01 08:15:31;;;;;;;6.55;2.20;;;;;;;;;;5018119;28;20417;-79
2023/10/01 08:20:58;;;;;;;8.57;2.53;;;;;;;;;;5017615;28;20110;-80
2023/10/01 08:23:25;;;;;;;5.80;2.08;;;;;;;;;;5019239;28;20061;-81
2023/10/01 08:25:54;;;;;;;8.48;2.53;;;;;;;;;;5024456;28;20037;-81
2023/10/01 08:30:49;;;;;;;5.82;2.60;;;;;;;;;;5024757;28;20248;-80
2023/10/01 08:33:19;;;;;;;7.22;2.45;;;;;;;;;;5023566;28;20053;-78
2023/10/01 08:35:56;;;;;;;5.05;2.10;;;;;;;;;;5058279;28;20068;-80
2023/10/01 08:38:24;;;;;;;8.77;2.10;;;;;;;;;;5022238;28;20153;-82
2023/10/01 08:40:53;;;;;;;6.90;2.30;;;;;;;;;;5015717;28;20046;-82
2023/10/01 08:43:24;;;;;;;5.80;2.00;;;;;;;;;;5018591;28;20075;-82
2023/10/01 08:45:52;;;;;;;6.20;2.20;;;;;;;;;;5019270;28;20106;-81
2023/10/01 08:48:20;;;;;;;6.50;2.17;;;;;;;;;;5017887;28;20136;-81
2023/10/01 08:50:47;;;;;;;6.40;2.22;;;;;;;;;;5021802;28;20438;-81
2023/10/01 08:53:14;;;;;;;7.10;2.42;;;;;;;;;;5020032;28;20242;-81
2023/10/01 08:58:25;;;;;;;5.68;2.05;;;;;;;;;;5024812;28;20141;-81
2023/10/01 09:00:56;;;;;;;6.65;2.40;;;;;;;;;;5017818;28;20048;-82
2023/10/01 09:03:34;;;;;;;9.32;3.13;;;;;;;;;;5021210;28;20065;-81
2023/10/01 09:06:08;;;;;;;6.28;2.00;;;;;;;;;;5020636;28;20053;-82
2023/10/01 09:08:45;;;;;;;5.80;1.95;;;;;;;;;;5022273;28;21513;-79
2023/10/01 09:11:13;;;;;;;7.03;2.60;;;;;;;;;;5025785;28;20069;-78
2023/10/01 09:16:42;;;;;;;6.33;2.23;;;;;;;;;;5026095;28;21883;-81
2023/10/01 09:21:56;;;;;;;6.35;2.33;;;;;;;;;;5033852;28;20547;-80
2023/10/01 09:24:39;;;;;;;6.05;2.08;;;;;;;;;;5038844;28;20548;-81
2023/10/01 09:27:09;;;;;;;6.18;2.10;;;;;;;;;;5038292;28;20453;-81
2023/10/01 09:29:46;;;;;;;7.50;2.25;;;;;;;;;;5028638;28;20501;-80
2023/10/01 09:32:14;;;;;;;5.30;2.10;;;;;;;;;;5026159;28;20481;-79
2023/10/01 09:34:53;;;;;;;7.07;2.50;;;;;;;;;;5022824;28;20065;-78
2023/10/01 09:37:42;;;;;;;7.13;2.20;;;;;;;;;;5021888;28;20448;-81
2023/10/01 09:42:58;;;;;;;5.68;2.08;;;;;;;;;;5011071;28;20242;-79
2023/10/01 09:45:29;;;;;;;5.80;2.20;;;;;;;;;;5040554;28;20042;-82
2023/10/01 09:48:01;;;;;;;6.63;2.20;;;;;;;;;;5026021;28;20042;-78
2023/10/01 09:50:29;;;;;;;4.80;2.08;;;;;;;;;;5025500;28;20081;-78
2023/10/01 09:52:59;;;;;;;5.10;2.03;;;;;;;;;;5026941;28;20050;-78
2023/10/01 09:55:27;;;;;;;5.78;2.17;;;;;;;;;;5039248;28;20045;-79
2023/10/01 09:57:57;;;;;;;5.75;2.03;;;;;;;;;;5042405;28;20059;-80
2023/10/01 10:00:42;;;;;;;5.53;2.03;;;;;;;;;;5041224;28;20045;-79
2023/10/01 10:03:12;;;;;;;5.50;1.97;;;;;;;;;;5040642;28;20053;-82
2023/10/01 10:05:42;;;;;;;5.95;2.42;;;;;;;;;;5038702;28;20081;-81
2023/10/01 10:08:26;;;;;;;6.47;2.58;;;;;;;;;;5031823;28;20048;-82
2023/10/01 10:10:55;;;;;;;6.97;2.15;;;;;;;;;;5027076;28;21740;-80
2023/10/01 10:13:36;;;;;;;6.13;2.50;;;;;;;;;;5037472;28;20050;-80
2023/10/01 10:16:29;;;;;;;5.53;2.05;;;;;;;;;;5027768;28;20046;-78
2023/10/01 10:19:13;;;;;;;6.35;2.00;;;;;;;;;;5024053;28;20657;-81
2023/10/01 10:24:30;;;;;;;6.90;2.40;;;;;;;;;;5038478;28;20053;-80
2023/10/01 10:30:00;;;;;;;6.20;2.00;;;;;;;;;;5040140;28;20493;-78
2023/10/01 10:32:28;;;;;;;10.48;2.42;;;;;;;;;;5060460;28;20118;-79
2023/10/01 10:35:04;;;;;;;4.75;1.98;;;;;;;;;;5046431;28;20041;-79
2023/10/01 10:37:34;;;;;;;5.43;2.20;;;;;;;;;;5044451;28;20076;-81
2023/10/01 10:40:12;;;;;;;5.38;2.45;;;;;;;;;;5025112;28;20488;-79
2023/10/01 10:42:41;;;;;;;6.15;2.30;;;;;;;;;;5033285;28;20455;-81
2023/10/01 10:45:19;;;;;;;8.48;2.30;;;;;;;;;;5039846;28;20057;-81
2023/10/01 10:47:58;;;;;;;5.75;2.08;;;;;;;;;;5038231;28;20133;-81
2023/10/01 10:50:44;;;;;;;6.55;2.50;;;;;;;;;;5034538;28;20161;-78
2023/10/01 10:53:20;;;;;;;;;;;;;;;;;;5041616;28;20076;-80
2023/10/01 10:55:56;;;;;;;8.00;2.67;;;;;;;;;;5039586;28;20652;-80
2023/10/01 10:58:28;;;;;;;6.07;2.50;;;;;;;;;;5032664;28;20957;-79
2023/10/01 11:00:55;;;;;;;7.30;2.65;;;;;;;;;;5045233;28;20045;-79
2023/10/01 11:03:41;;;;;;;5.18;2.35;;;;;;;;;;5035289;28;20065;-77
2023/10/01 11:06:17;;;;;;;5.88;2.47;;;;;;;;;;5022524;28;20048;-79
2023/10/01 11:08:50;;;;;;;;;;;;;;;;;;5022104;28;20050;-81
2023/10/01 11:11:24;;;;;;;6.22;2.20;;;;;;;;;;5023935;28;20274;-82
2023/10/01 11:14:15;;;;;;;6.72;2.38;;;;;;;;;;5028287;28;21043;-82
2023/10/01 11:16:46;;;;;;;6.40;2.45;;;;;;;;;;5025916;28;20639;-81
2023/10/01 11:19:15;;;;;;;6.82;2.28;;;;;;;;;;5046039;28;20059;-77
2023/10/01 11:21:59;;;;;;;6.28;2.20;;;;;;;;;;5029955;28;20065;-79
2023/10/01 11:24:29;;;;;;;3.83;1.80;;;;;;;;;;5056554;28;20324;-78
2023/10/01 11:27:22;;;;;;;7.75;2.28;;;;;;;;;;5040961;28;20049;-80
2023/10/01 11:30:12;;;;;;;4.57;2.13;;;;;;;;;;5029847;28;20186;-81
2023/10/01 11:33:36;;;;;;;5.00;1.95;;;;;;;;;;5036616;28;20409;-81
2023/10/01 11:35:59;;;;;;;5.45;1.83;;;;;;;;;;5030846;28;20829;-80
2023/10/01 11:38:26;;;;;;;5.25;2.00;;;;;;;;;;5044769;28;20473;-79
2023/10/01 11:41:07;;;;;;;5.05;2.10;;;;;;;;;;5019916;28;20403;-83
2023/10/01 11:44:08;;;;;;;4.78;2.10;;;;;;;;;;5016283;28;20464;-82
2023/10/01 11:49:34;;;;;;;5.65;2.22;;;;;;;;;;5016500;28;21465;-81
2023/10/01 11:52:25;;;;;;;4.47;1.80;;;;;;;;;;5017261;28;20508;-80
2023/10/01 11:54:55;;;;;;;4.43;1.88;;;;;;;;;;5020496;28;20042;-82
2023/10/01 11:57:23;;;;;;;3.50;2.00;;;;;;;;;;5018968;28;20068;-80
2023/10/01 11:59:56;;;;;;;4.97;1.88;;;;;;;;;;5043152;28;20055;-79
2023/10/01 12:02:25;;;;;;;6.13;2.47;;;;;;;;;;5020987;28;20106;-81
2023/10/01 12:04:58;;;;;;;3.70;1.83;;;;;;;;;;5016216;28;20041;-80
2023/10/01 12:07:32;;;;;;;10.38;1.85;;;;;;;;;;5017771;28;20875;-78
2023/10/01 12:09:59;;;;;;;3.90;1.80;;;;;;;;;;5034225;28;20541;-80
2023/10/01 12:12:36;;;;;;;3.03;1.67;;;;;;;;;;5019758;28;20069;-82
2023/10/01 12:17:51;;;;;;;4.07;1.60;;;;;;;;;;5033396;28;20095;-80
2023/10/01 12:20:29;;;;;;;4.95;2.10;;;;;;;;;;5016240;28;20054;-83
2023/10/01 12:23:11;;;;;;;5.35;2.00;;;;;;;;;;5030901;28;20057;-80
2023/10/01 12:28:25;;;;;;;3.40;1.48;;;;;;;;;;5019725;28;20033;-80
2023/10/01 12:30:59;;;;;;;4.63;2.00;;;;;;;;;;5021372;28;20069;-81
2023/10/01 12:33:43;;;;;;;4.07;1.80;;;;;;;;;;5021874;28;20077;-79
2023/10/01 12:44:25;;;;;;;3.65;1.75;;;;;;;;;;5033196;28;20050;-81
2023/10/01 12:46:54;;;;;;;4.25;1.80;;;;;;;;;;5008197;28;20041;-80
2023/10/01 12:49:21;;;;;;;5.13;2.38;;;;;;;;;;5019440;28;20042;-81
2023/10/01 12:51:54;;;;;;;4.97;2.00;;;;;;;;;;5019487;28;20053;-82
2023/10/01 12:54:27;;;;;;;3.80;1.90;;;;;;;;;;5018859;28;20393;-77
2023/10/01 12:57:12;;;;;;;4.22;1.75;;;;;;;;;;5024817;28;20050;-82
2023/10/01 12:59:46;;;;;;;4.10;1.53;;;;;;;;;;5024626;28;21551;-82
2023/10/01 13:02:28;;;;;;;3.78;1.77;;;;;;;;;;5023779;28;20054;-82
2023/10/01 13:07:43;;;;;;;4.18;1.70;;;;;;;;;;5013444;28;20779;-82
2023/10/01 13:10:10;;;;;;;5.93;2.10;;;;;;;;;;5014370;28;20110;-81
2023/10/01 13:12:55;;;;;;;4.85;1.88;;;;;;;;;;5012177;28;20210;-82
2023/10/01 13:15:40;;;;;;;5.22;1.98;;;;;;;;;;5030563;28;20053;-81
2023/10/01 13:18:18;;;;;;;5.37;2.03;;;;;;;;;;5025750;28;20061;-82
2023/10/01 13:23:28;;;;;;;6.13;1.88;;;;;;;;;;5020308;28;20405;-80
2023/10/01 13:29:01;;;;;;;4.95;1.98;;;;;;;;;;5012606;28;20612;-78
2023/10/01 13:34:06;;;;;;;5.25;1.90;;;;;;;;;;5034201;28;20088;-79
2023/10/01 13:36:50;;;;;;;5.05;1.80;;;;;;;;;;5043237;28;20057;-80
2023/10/01 14:09:50;;;;;;;5.38;2.05;;;;;;;;;;5050167;28;20048;-79
2023/10/01 14:12:41;;;;;;;7.22;1.80;;;;;;;;;;5046944;28;20448;-80
2023/10/01 14:15:05;;;;;;;5.53;2.15;;;;;;;;;;5035416;28;20374;-80
2023/10/01 14:17:32;;;;;;;5.20;2.03;;;;;;;;;;5038117;28;20054;-81
2023/10/01 14:19:59;;;;;;;3.90;1.75;;;;;;;;;;5038824;28;20064;-82
2023/10/01 14:22:29;;;;;;;6.93;2.08;;;;;;;;;;5036215;28;20045;-81
2023/10/01 14:24:56;;;;;;;6.90;2.30;;;;;;;;;;5034865;28;20055;-82
2023/10/01 14:27:25;;;;;;;4.28;1.90;;;;;;;;;;5035308;28;20053;-82
2023/10/01 14:30:01;;;;;;;4.65;1.88;;;;;;;;;;5035544;28;20045;-83
2023/10/01 14:32:34;;;;;;;4.22;1.88;;;;;;;;;;5044569;28;20467;-80
2023/10/01 14:35:14;;;;;;;5.07;1.95;;;;;;;;;;5036342;28;20065;-82
2023/10/01 14:37:53;;;;;;;5.35;2.25;;;;;;;;;;5046886;28;20175;-80
2023/10/01 14:40:23;;;;;;;5.28;2.10;;;;;;;;;;5043709;28;20481;-80
2023/10/01 14:42:58;;;;;;;6.25;2.28;;;;;;;;;;5036406;28;20071;-80
2023/10/01 14:45:33;;;;;;;4.85;2.22;;;;;;;;;;5041921;28;20053;-81
2023/10/01 14:48:06;;;;;;;5.32;2.22;;;;;;;;;;5049567;28;20249;-81
2023/10/01 14:50:41;;;;;;;4.65;1.92;;;;;;;;;;5050630;28;20075;-81
2023/10/01 14:53:09;;;;;;;7.25;2.13;;;;;;;;;;5037469;28;20116;-80
2023/10/01 14:55:43;;;;;;;4.95;2.40;;;;;;;;;;5037516;28;20041;-78
2023/10/01 14:58:13;;;;;;;5.72;2.38;;;;;;;;;;5036006;28;20049;-80
2023/10/01 15:00:52;;;;;;;6.32;2.50;;;;;;;;;;5036948;28;20045;-80
2023/10/01 15:03:23;;;;;;;6.00;2.60;;;;;;;;;;5032668;28;20053;-82
2023/10/01 15:05:50;;;;;;;6.35;2.50;;;;;;;;;;5034410;28;20045;-81
2023/10/01 15:08:17;;;;;;;8.50;2.20;;;;;;;;;;5039776;28;20077;-78
2023/10/01 15:10:50;;;;;;;5.10;2.10;;;;;;;;;;5038075;28;20049;-81
2023/10/01 15:13:36;;;;;;;5.95;2.58;;;;;;;;;;5038355;28;20419;-79
2023/10/01 15:16:12;;;;;;;7.32;2.50;;;;;;;;;;5040640;28;20386;-79
2023/10/01 15:19:01;;;;;;;5.30;2.10;;;;;;;;;;5034949;28;20060;-81
2023/10/01 15:21:31;;;;;;;6.97;2.40;;;;;;;;;;5035818;28;20045;-82
2023/10/01 15:24:00;;;;;;;5.60;2.30;;;;;;;;;;5033366;28;20507;-81
2023/10/01 15:26:31;;;;;;;8.60;2.95;;;;;;;;;;5035831;28;20125;-80
2023/10/01 15:28:57;;;;;;;5.88;2.10;;;;;;;;;;5046948;28;20045;-81
2023/10/01 15:31:33;;;;;;;6.30;2.10;;;;;;;;;;5033953;28;20045;-82
2023/10/01 15:34:03;;;;;;;5.43;2.30;;;;;;;;;;5037879;28;20056;-80
2023/10/01 15:36:40;;;;;;;7.95;2.65;;;;;;;;;;5036140;28;20061;-81
2023/10/01 15:42:08;;;;;;;6.20;2.42;;;;;;;;;;5036043;28;20416;-80
2023/10/01 15:44:43;;;;;;;6.90;2.60;;;;;;;;;;5041978;28;20064;-79
2023/10/01 15:50:08;;;;;;;6.70;2.70;;;;;;;;;;5036146;28;20453;-78
2023/10/01 15:52:38;;;;;;;5.22;2.17;;;;;;;;;;5039888;28;20064;-80
2023/10/01 15:55:05;;;;;;;6.93;2.88;;;;;;;;;;5039114;28;20049;-79
2023/10/01 15:57:33;;;;;;;5.95;2.45;;;;;;;;;;5041912;28;20056;-78
2023/10/01 16:00:01;;;;;;;7.88;2.78;;;;;;;;;;5045892;28;20045;-78
2023/10/01 16:02:38;;;;;;;6.53;2.67;;;;;;;;;;5042232;28;20052;-80
2023/10/01 16:05:15;;;;;;;6.38;2.40;;;;;;;;;;5037946;28;20049;-82
2023/10/01 16:07:44;;;;;;;7.35;2.55;;;;;;;;;;5036143;28;20076;-81
2023/10/01 16:10:11;;;;;;;6.82;2.60;;;;;;;;;;5036980;28;20065;-82
2023/10/01 16:12:39;;;;;;;5.20;2.50;;;;;;;;;;5038850;28;20048;-82
2023/10/01 16:15:08;;;;;;;5.75;2.45;;;;;;;;;;5031893;28;20049;-80
2023/10/01 16:17:35;;;;;;;6.18;2.95;;;;;;;;;;5030946;28;20068;-80
2023/10/01 16:20:02;;;;;;;8.38;3.08;;;;;;;;;;5031902;28;20499;-81
2023/10/01 16:22:30;;;;;;;7.30;3.13;;;;;;;;;;5035909;28;20049;-81
2023/10/01 16:24:58;;;;;;;7.60;2.78;;;;;;;;;;5036742;28;20101;-82
2023/10/01 16:27:26;;;;;;;8.77;3.03;;;;;;;;;;5036193;28;20120;-78
2023/10/01 16:30:11;;;;;;;8.02;2.72;;;;;;;;;;5038367;28;20052;-81
2023/10/01 16:32:47;;;;;;;10.68;4.45;;;;;;;;;;5043144;28;20084;-79
2023/10/01 16:35:21;;;;;;;8.68;3.30;;;;;;;;;;5054406;28;20045;-78
2023/10/01 16:37:50;;;;;;;8.27;3.53;;;;;;;;;;5039859;28;20065;-78
2023/10/01 16:40:22;;;;;;;7.47;3.03;;;;;;;;;;5043045;28;20479;-82
2023/10/01 16:42:52;;;;;;;8.48;3.00;;;;;;;;;;5031785;28;20040;-82
2023/10/01 16:45:28;;;;;;;7.85;2.53;;;;;;;;;;5045786;28;20045;-79
2023/10/01 16:47:56;;;;;;;5.82;2.33;;;;;;;;;;5035526;28;20657;-83
2023/10/01 16:50:29;;;;;;;7.20;2.70;;;;;;;;;;5035477;28;20329;-82
2023/10/01 16:53:00;;;;;;;7.95;2.75;;;;;;;;;;5042071;28;20240;-81
2023/10/01 16:55:26;;;;;;;6.90;2.70;;;;;;;;;;5049869;28;20356;-80
2023/10/01 16:57:56;;;;;;;7.65;2.60;;;;;;;;;;5044398;28;20045;-79
2023/10/01 17:00:23;;;;;;;6.25;2.47;;;;;;;;;;5047775;28;20735;-79
2023/10/01 17:02:51;;;;;;;5.50;2.33;;;;;;;;;;5060202;28;20033;-81